Gustavo Fernandes

Chefscout - Alverca
5 Dez 2027
Sonntag
Verarbeitung

Persönlichkeit

Anpassungsfähigkeit (8) Ehrgeiz (5) Kontroverse (20) Loyalität (17) Druck (3) Professionalität (5) Fairness (19) Temperament (7)

Profil

Trainerstil Demokratisch
Lizenz Nationale B
Entschlossenheit 10
Menschenführung 7
Motivation 10
Disziplin 12
Arbeitszufriedenheit
100%
Ermüdung
0%
Rolle Chefscout
Gehalt 19.9K p/W
Vertrag 14.03.2029

Leistung

Verhalten Gut
Trainingseffektivität
48%
Spielerentwicklung
60%
Verletzungsprävention
40%
Taktische Umsetzung
35%

Aktuell beobachtet

108
Spieler Verein Status Fähigkeit Vertrauen Beobachtet Zuletzt beobachtet Letzte Stimme
Mateo Peralta Danubio Aktiv 115 / 125 40% 2 20.08.2027 -
Alphadjo Cissé Bologna Aktiv 135 / 143 40% 1 20.08.2027 -
Assane Diao Como Aktiv 147 / 148 40% 1 20.08.2027 -
Emiliano Zambrano Gimnasia y Esgrima Aktiv 87 / 91 40% 3 19.08.2027 -
Didier Dawson Envigado Aktiv 105 / 117 40% 2 19.08.2027 -
Sunday Aniebet Enyimba Aktiv 84 / 110 40% 1 19.08.2027 -
Kaick FC Dallas Aktiv 101 / 105 40% 4 18.08.2027 -
İsak Vural Pisa Aktiv 112 / 130 40% 2 18.08.2027 -
Mattia Della Rocca Vicenza Aktiv 97 / 111 40% 1 18.08.2027 -
Edoardo Cuel Virtus Verona Aktiv 78 / 80 40% 3 17.08.2027 -
Exequiel Mereles Nacional Aktiv 105 / 110 40% 1 17.08.2027 -
Jayden Addai Como Aktiv 144 / 131 40% 1 17.08.2027 -
Dylan Cabral Arsenal Aktiv 95 / 104 40% 1 15.08.2027 -
Maren Kefas Plateau United Aktiv 82 / 98 40% 1 15.08.2027 -
Alex Amaefula Kun Khalifat Aktiv 71 / 76 40% 1 14.08.2027 -
Mateo Silvetti Inter Miami CF Aktiv 122 / 131 40% 1 14.08.2027 -
Filipe Gabriel Depor Aktiv 93 / 90 40% 4 13.08.2027 -
Nhlanhla Gasa FC Diarra Aktiv 86 / 79 40% 1 13.08.2027 -
Mattia Mannini Juve Stabia Aktiv 112 / 114 40% 1 12.08.2027 -
Álex Marchal Real Sociedad Aktiv 109 / 118 40% 7 11.08.2027 -
Tobia Mogentale Altamura Aktiv 99 / 111 40% 1 11.08.2027 -
Hassan Beja AFC Leopards Aktiv 81 / 88 40% 3 09.08.2027 -
Mattia Rutigliano Pro Vercelli Aktiv 99 / 114 40% 1 09.08.2027 -
Gustavo Lozano Zamora Aktiv 98 / 102 40% 1 05.08.2027 -
Stevan Manuel Benfica Aktiv 105 / 106 40% 1 05.08.2027 -
Asanele Bonani Chippa United Aktiv 106 / 93 40% 1 05.08.2027 -
Felipe Teresa General Caballero Aktiv 95 / 89 40% 5 03.08.2027 -
Bryan Caicedo Leones Aktiv 94 / 105 40% 5 03.08.2027 -
Peter Amidu Acquah Asante Kotoko Aktiv 106 / 92 40% 1 03.08.2027 -
Mateo Ostachi Alvarado Aktiv 86 / 94 40% 1 02.08.2027 -
Filippo Scotti AC Milan Aktiv 99 / 119 40% 1 01.08.2027 -
Jorge Mora Como Aktiv 98 / 111 40% 1 01.08.2027 -
Marco Oroná Antofagasta Aktiv 100 / 95 40% 2 28.07.2027 -
Román Barrios Patronato Aktiv 93 / 92 40% 2 28.07.2027 -
Riquelme Grêmio Aktiv 102 / 114 40% 1 28.07.2027 -
Sipho Ngqakabana US Bougouni Aktiv 81 / 85 40% 3 27.07.2027 -
Emmanuel Ndubueze Shooting Stars Aktiv 94 / 102 40% 2 26.07.2027 -
Percy Zungu Platinum Stars Aktiv 92 / 94 40% 1 26.07.2027 -
Ichem Ferrah Pisa Aktiv 112 / 112 40% 1 26.07.2027 -
Lautaro Millán Independiente Aktiv 128 / 133 40% 2 25.07.2027 -
Bahia Santos Aktiv 113 / 117 40% 1 23.07.2027 -
Gustavo Albarracín Alavés Aktiv 113 / 111 40% 1 22.07.2027 -
Noah Streit CF Montreal Aktiv 111 / 126 40% 1 22.07.2027 -
Augusto Bando Ascoli Aktiv 98 / 118 40% 2 19.07.2027 -
Nathan Doualla Canon Yaounde Aktiv 95 / 111 40% 1 19.07.2027 -
Dries Vanaken Mouscron Aktiv 123 / 118 40% 3 18.07.2027 -
Pablo Lúcio Twente Aktiv 111 / 121 40% 1 18.07.2027 -
Bernardes Benfica Aktiv 106 / 107 40% 4 17.07.2027 -
Joel Medina Osasuna Aktiv 115 / 128 40% 2 17.07.2027 -
Ian Wisdom Sporting Cristal Aktiv 98 / 107 40% 1 16.07.2027 -
Vitaliy Mykhayliv Nyva Aktiv 87 / 91 40% 3 12.07.2027 -
Pedro Borges Exeter City Aktiv 87 / 83 40% 1 11.07.2027 -
Dennis Konney US Bougouba Aktiv 88 / 99 40% 2 10.07.2027 Mehr Infos nötig
Paulo Cardoso Sporting CP Abgelehnt 101 / 95 40% 2 09.07.2027 Mehr Infos nötig
Martim Cunha Porto Aktiv 103 / 114 40% 3 08.07.2027 -
Daniil Plotnikov Arsenal Tula Aktiv 71 / 76 40% 1 06.07.2027 -
Juan David Obando Volna Aktiv 96 / 77 40% 3 05.07.2027 -
Mateo Durand General Diaz Aktiv 94 / 90 40% 1 05.07.2027 -
Yegor Gulyaev Chaika Aktiv 93 / 99 40% 1 05.07.2027 -
Louis Page West Ham United Aktiv 126 / 127 40% 3 01.07.2027 -
Alexis Fretes Libertad Aktiv 101 / 118 40% 1 01.07.2027 -
Douglas Friedrich Portimonense Verloren 112 / 105 72% 1 28.06.2027 Befürworten
Keny Arroyo São Paulo Aktiv 123 / 135 40% 1 27.06.2027 -
Nicolás Azambuja Nottingham Forest Aktiv 118 / 135 40% 4 20.06.2027 -
Cundo Leicester City Aktiv 132 / 147 40% 4 19.06.2027 -
Kamarni Ryan Pro Vercelli Aktiv 97 / 102 40% 1 19.06.2027 -
Fabián Correa Barranquilla Aktiv 92 / 99 40% 1 18.06.2027 -
Molemo Seemela Zvezda Aktiv 78 / 80 40% 1 18.06.2027 -
João Camacho Cardiff City Aktiv 111 / 111 67% 1 14.06.2027 Befürworten
Izan Merino Málaga Aktiv 124 / 126 40% 2 13.06.2027 -
Mauricio Amaro Atlanta United FC Aktiv 118 / 128 40% 2 11.06.2027 -
Yago Noal Santa Cruz Aktiv 107 / 105 40% 1 11.06.2027 -
Nikita Posmashny Chaika Aktiv 90 / 76 40% 1 08.06.2027 -
Jacopo Bacci Sorrento Aktiv 100 / 113 40% 1 02.06.2027 -
Karim El Wensh AZ Abgelehnt 124 / 124 67% 1 01.06.2027 Ablehnen
Stjepan Davidović Korona Aktiv 117 / 114 40% 1 30.01.2027 -
Villum Berthelsen FC Nordsjaelland Aktiv 125 / 110 40% 1 29.01.2027 -
Daniel Awuni Aduana Stars Aktiv 90 / 105 40% 1 29.01.2027 -
Daniel Vernattus Metalist Aktiv 81 / 101 40% 1 26.01.2027 Mehr Infos nötig
Santiago Grella Unión de Santa Fe Aktiv 108 / 109 40% 1 26.01.2027 -
Momodou Sonko KAA Gent Abgelehnt 111 / 123 40% 1 25.01.2027 Mehr Infos nötig
Savely Nikiforov Zenit Aktiv 73 / 98 40% 1 25.01.2027 -
Adriano Jagušić Panathinaikos Abgelehnt 129 / 119 40% 1 25.01.2027 Mehr Infos nötig
José Pachuca Puebla Aktiv 109 / 109 40% 1 18.01.2027 -
Huguinho Botafogo Aktiv 99 / 96 40% 1 18.01.2027 -
Eliás Montiel Pachuca Aktiv 132 / 139 40% 1 18.01.2027 -
Renato Guimarães Veracruz Aktiv 113 / 129 40% 1 17.01.2027 -
Emirhan Başyiğit Sivasspor Aktiv 115 / 102 40% 1 14.01.2027 -
Larson Palmeiras Aktiv 102 / 108 40% 1 14.01.2027 -
Juan Pablo De la Reta Maipú Aktiv 116 / 110 40% 1 13.01.2027 -
Enzo Tacafred AS Nancy Aktiv 97 / 104 40% 1 13.01.2027 -
Kauan Coutinho Vitória Aktiv 89 / 113 40% 1 12.01.2027 -
Arthur Palmeiras Aktiv 88 / 105 40% 1 12.01.2027 -
Benedetti Palmeiras Aktiv 110 / 110 40% 1 12.01.2027 -
Pepê Fermino Santos Aktiv 94 / 102 40% 1 05.01.2027 -
Sergi Domínguez Dinamo Zagreb Aktiv 117 / 119 40% 1 04.01.2027 -
Harry Ashfield Wrexham Aktiv 88 / 92 40% 1 04.01.2027 -
Cauã Soares Atlético Mineiro Aktiv 86 / 95 40% 1 04.01.2027 -
Jerónimo Russo Newell's Old Boys Aktiv 99 / 93 40% 1 29.08.2026 -
Ezekiel Kwame Alladoh Philadelphia Union Aktiv 106 / 131 40% 3 27.08.2026 -
Otávio Santos Aktiv 73 / 78 40% 1 27.08.2026 -
Youssoufa Moukoko FC Copenhagen Aktiv 119 / 121 40% 2 21.08.2026 -
Jeremías Reyna Vélez Aktiv 90 / 99 40% 1 20.08.2026 -
Gerardo Valenzuela FC Cincinnati Aktiv 93 / 97 40% 1 19.08.2026 -
Justin-Noël Kalumba Mallorca Aktiv 102 / 124 40% 1 10.08.2026 -
Gleyfer Medina Odd Aktiv 93 / 88 40% 1 10.08.2026 -
Archie Goodwin Charlotte Football Club Aktiv 106 / 100 40% 1 01.08.2026 -
Renzo Machado Liverpool Montevideo Aktiv 112 / 113 40% 1 01.08.2026 -